• Join FlightAware (Why Join?)
  • Login
  • US Flag 
01:23AM EDT


 

Airport Tracker/Info


-or-


 

Live Flight TrackerFlight Track Log ✈ N90Z ✈ 21-May-2013 ✈ KPHL - KIMT

Flight Track Log - Related Links

Times and Time Zones

All times are in EDT time to prevent confusion due to time zone crossing. See the N90Z flight status page for this flight to view local times or setup timezone preferences in your user account.

Time Position Orientation Groundspeed Altitude Reporting Facility
EDT Latitude Longitude Course Direction KTS MPH feet Rate Location/Type
05:12PM 41.1016 -77.4856 306° West  Level Estimated
05:13PM 41.1519 -77.5810 305° West  Level Estimated
05:14PM 41.2021 -77.6764 305° West  Level Estimated
05:15PM 41.2522 -77.7721 305° West  Level Estimated
05:16PM 41.3022 -77.8678 305° West  Level Estimated
05:17PM 41.3522 -77.9638 305° West  Level Estimated
05:18PM 41.4020 -78.0598 305° West  Level Estimated
05:19PM 41.4518 -78.1560 305° West  Level Estimated
05:20PM 41.5015 -78.2524 305° West  Level Estimated
05:21PM 41.5512 -78.3489 305° West  Level Estimated
05:22PM 41.6007 -78.4455 304° West  Level Estimated
05:23PM 41.6502 -78.5424 304° West  Level Estimated
05:24PM 41.6996 -78.6393 304° West  Level Estimated
05:25PM 41.7489 -78.7364 304° West  Level Estimated
05:26PM 41.7981 -78.8336 304° West  Level Estimated
05:27PM 41.8472 -78.9311 304° West  Level Estimated
05:28PM 41.8963 -79.0286 304° West  Level Estimated
05:29PM 41.9453 -79.1263 304° West  Level Estimated
05:30PM 41.9942 -79.2242 304° West  Level Estimated
05:31PM 42.0430 -79.3222 304° West  Level Estimated
05:32PM 42.0917 -79.4203 304° West  Level Estimated
05:33PM 42.1404 -79.5186 304° West  Level Estimated
05:34PM 42.1889 -79.6171 304° West  Level Estimated
05:35PM 42.2359 -79.7127 304° West  Level Estimated
05:36PM 42.2828 -79.8084 304° West  Level Estimated
05:37PM 42.3278 -79.9004 303° West  Level Estimated
05:38PM 42.3727 -79.9926 303° West  Level Estimated
05:39PM 42.4175 -80.0848 303° West  Level Estimated
05:40PM 42.4622 -80.1772 303° West  Level Estimated
05:41PM 42.5072 -80.2706 303° West  Level Estimated
05:42PM 42.5522 -80.3640 303° West  Level Estimated
05:43PM 42.5971 -80.4576 303° West  Level Estimated
05:44PM 42.6419 -80.5514 303° West  Level Estimated
05:45PM 42.6866 -80.6453 303° West  Level Estimated
05:46PM 42.7313 -80.7393 303° West  Level Estimated
05:47PM 42.7759 -80.8335 303° West  Level Estimated
05:48PM 42.8204 -80.9278 303° West  Level Estimated
05:49PM 42.8637 -81.0197 303° West  Level Estimated
05:50PM 42.9068 -81.1117 303° West  Level Estimated
05:51PM 42.9499 -81.2038 303° West  Level Estimated
05:52PM 42.9930 -81.2961 303° West  Level Estimated
05:53PM 43.0359 -81.3886 302° West  Level Estimated
05:54PM 43.0788 -81.4811 302° West  Level Estimated
05:55PM 43.1216 -81.5738 302° West  Level Estimated
05:56PM 43.1643 -81.6666 302° West  Level Estimated
05:57PM 43.2072 -81.7600 302° West  Level Estimated
05:58PM 43.2500 -81.8536 302° West  Level Estimated
05:59PM 43.2927 -81.9473 302° West  Level Estimated
06:00PM 43.3354 -82.0412 302° West  Level Estimated
06:01PM 43.3780 -82.1352 302° West  Level Estimated
06:02PM 43.4205 -82.2293 302° West  Level Estimated
06:03PM 43.4629 -82.3235 302° West  Level Estimated
06:04PM 43.5053 -82.4179 302° West  Level Estimated
06:05PM 43.5485 -82.5146 302° West  Level Estimated
06:06PM 43.5901 -82.6080 302° West  Level Estimated
06:07PM 43.6317 -82.7016 302° West  Level Estimated
06:08PM 43.6732 -82.7952 302° West  Level Estimated
06:09PM 43.7146 -82.8890 301° West  Level Estimated
06:10PM 43.7571 -82.9856 301° West  Level Estimated
06:11PM 43.7995 -83.0823 301° West  Level Estimated
06:12PM 43.8419 -83.1791 301° West  Level Estimated
06:13PM 43.8841 -83.2761 301° West  Level Estimated
06:14PM 43.9253 -83.3710 301° West  Level Estimated
06:15PM 43.9670 -83.4673 301° West  Level Estimated
06:16PM 44.0085 -83.5637 301° West  Level Estimated
06:17PM 44.0471 -83.6534 301° West  Level Estimated
06:18PM 44.0868 -83.7460 301° West  Level Estimated
06:19PM 44.1265 -83.8389 301° West  Level Estimated
06:20PM 44.1660 -83.9318 301° West  Level Estimated
06:21PM 44.2055 -84.0248 301° West  Level Estimated
06:22PM 44.2450 -84.1180 301° West  Level Estimated
06:23PM 44.2843 -84.2113 301° West  Level Estimated
06:24PM 44.3236 -84.3047 300° West  Level Estimated
06:25PM 44.3628 -84.3983 300° West  Level Estimated
06:26PM 44.4019 -84.4919 300° West  Level Estimated
06:27PM 44.4409 -84.5857 300° West  Level Estimated
06:28PM 44.4799 -84.6796 300° West  Level Estimated
06:29PM 44.5187 -84.7737 300° West  Level Estimated
06:30PM 44.5576 -84.8679 300° West  Level Estimated
06:31PM 44.5963 -84.9622 300° West  Level Estimated
06:32PM 44.6349 -85.0566 300° West  Level Estimated
06:33PM 44.6735 -85.1511 300° West  Level Estimated
06:34PM 44.7120 -85.2457 300° West  Level Estimated
06:35PM 44.7504 -85.3405 300° West  Level Estimated
06:36PM 44.7887 -85.4354 300° West  Level Estimated
06:37PM 44.8269 -85.5304 300° West  Level Estimated
06:38PM 44.8651 -85.6255 300° West  Level Estimated
06:39PM 44.9032 -85.7208 299° West  Level Estimated
06:40PM 44.9412 -85.8162 299° West  Level Estimated
06:41PM 44.9791 -85.9118 299° West  Level Estimated
06:42PM 45.0170 -86.0074 299° West  Level Estimated
06:43PM 45.0548 -86.1032 299° West  Level Estimated
06:44PM 45.0924 -86.1991 299° West  Level Estimated
06:45PM 45.1301 -86.2951 299° West  Level Estimated
06:46PM 45.1676 -86.3913 299° West  Level Estimated
06:47PM 45.2050 -86.4875 299° West  Level Estimated
06:48PM 45.2424 -86.5840 299° West  Level Estimated
06:49PM 45.2797 -86.6805 299° West  Level Estimated
06:50PM 45.3169 -86.7772 299° West  Level Estimated
06:51PM 45.3540 -86.8740 299° West  Level Estimated
06:52PM 45.3910 -86.9709 299° West  Level Estimated
06:53PM 45.4280 -87.0679 299° West  Level Estimated
06:54PM 45.4649 -87.1651 298° West  Level Estimated
06:55PM 45.5017 -87.2624 298° West  Level Estimated
06:56PM 45.5384 -87.3598 298° West  Level Estimated
06:57PM 45.5750 -87.4574 298° West  Level Estimated
06:58PM 45.6116 -87.5551 298° West  Level Estimated
06:59PM 45.6480 -87.6529 298° West  Level Estimated
07:00PM 45.6844 -87.7508 298° West  Level Estimated
07:01PM 45.7207 -87.8489 298° West  Level Estimated
07:02PM 45.7569 -87.9471 298° West  Level Estimated
07:03PM 45.7930 -88.0454 298° West  Level Estimated
07:04PM 45.8184 -88.1146 298° West  Level Estimated
07:05PM 45.8184 -88.1146 70° East  Level Estimated
07:06PM 45.8184 -88.1146 70° East  Level Estimated
07:07PM 45.8184 -88.1146 70° East  Level Estimated
07:08PM 45.8184 -88.1146 70° East  Level Estimated
07:08PM 45.3261 -87.3856 70° East 258 297 14,700  Level Minneapolis Center
07:09PM 45.8184 -88.1146 70° East  Level Estimated
07:09PM 45.3214 -87.4844 266° West 253 291 13,100  Level Minneapolis Center
07:10PM 45.8184 -88.1146 70° East  Level Estimated
07:10PM 45.3361 -87.5806 282° West 251 289 11,400  Level Minneapolis Center
07:11PM 45.8184 -88.1146 70° East  Level Estimated
07:11PM 45.3797 -87.6778 303° West 239 275 9,500  Level Minneapolis Center
07:12PM 45.8184 -88.1146 70° East  Level Estimated
07:12PM 45.4147 -87.7528 304° West 230 265 7,800  Level Minneapolis Center
07:13PM 45.8184 -88.1146 70° East  Level Estimated
07:13PM 45.4483 -87.8261 303° West 224 258 6,800  Level Minneapolis Center
07:14PM 45.8184 -88.1146 70° East  Level Estimated
07:15PM 45.4836 -87.9194 298° West 246 283 5,600  Level Minneapolis Center
07:16PM 45.5142 -87.9900 302° West 230 265 4,800 -780 Descending Minneapolis Center
07:17PM 45.5461 -88.0686 300° West 219 252 4,000 -720 Descending Minneapolis Center
07:18PM 45.5875 -88.1419 309° West 208 239 3,300 -360 Descending Minneapolis Center
07:19PM 45.6467 -88.1428 359° North 193 222 3,200 -120 Descending Minneapolis Center
07:20PM 45.7056 -88.1353 North 192 221 3,100 -300 Descending Minneapolis Center
07:21PM 45.7597 -88.1231 North 190 219 2,700 -420 Descending Minneapolis Center